Aeroporto :
LOGIN :

Iscrizione | Disclaimer

   EN    FR    IT 

 










Sommario :    VFR   VFR Marginale   IFR   IFR Intensivo   IFR Molto Intensivo
Visibilità : 
Base nubi : 
>= 8 km
>= 3000ft
5 / 8 km
1000 / 3000 ft
1500m / 5 km
500 / 1000 ft
800 / 1500m
200 / 500 ft
< 800m
< 200 ft
Simboli :   Temporali  Nebbia  Neve Forte  Precipitazioni Forti  Vento > 20 kt
SIGMETs :   Varie  Temporali  Ghiacco  Turbolenza  Onda orograficha  Ceneri Vulcaniche






- Altitudine del aeroporto : 821 ft
- Codice IATA : LYS


LFLL - Lyon St Exupéry / Satolas

ULTIMO METAR :
  • 211530Z 20009KT 9999 SCT046TCU SCT093 20/11 Q1009 TEMPO VRB15KT SHRA FEW040CB

METARs OBSOLETI :
  • 211500Z 20010KT 9999 FEW026 SCT043TCU 19/11 Q1009 TEMPO VRB15KT SHRA FEW040CB
  • 211430Z 19009KT 9999 -SHRA FEW040CB SCT046TCU 19/12 Q1009 TEMPO VRB15KT
  • 211400Z 21011KT 180V250 9999 -SHRA FEW036CB SCT043TCU 20/10 Q1009 NOSIG
  • 211330Z 22010KT 180V280 9999 FEW048TCU SCT093 21/09 Q1009 TEMPO SHRA
  • 211300Z 24010KT 9999 FEW048TCU SCT093 20/09 Q1009 NOSIG
  • 211230Z 22012KT 9999 FEW046TCU SCT073 21/10 Q1009 NOSIG
  • 211200Z 21010KT 9999 FEW050TCU SCT056 19/10 Q1009 NOSIG
  • 211130Z 22008KT 170V250 9999 SCT050 20/09 Q1009 TEMPO FEW050TCU
  • 211100Z 24008KT 210V270 9999 SCT046 19/09 Q1010 TEMPO FEW050TCU

TAF TAF LFLL
Valido dal 21 a 12 ore il 22 a 18 ore UTC


211100Z 2112/2218 21008KT 9999 SCT050
TEMPO 2112/2121 4500 SHRA FEW045CB SCT050TCU
PROB40
TEMPO 2113/2118 VRB15G25KT 2000 TSRA SCT010 BKN040CB
BECMG 2119/2121 BKN045
PROB40
TEMPO 2121/2209 -RA
PROB40
TEMPO 2121/2124 FEW045TCU
PROB30
TEMPO 2206/2209 SCT014
BECMG 2209/2210 36005KT
PROB40
TEMPO 2214/2218 4000 SHRA SCT045TCU
PROB30
TEMPO 2214/2218 VRB15G25KT 2000 TSRA BKN040CB



MetMap, La meteo Aeronautica in un colpo d'occhio ! - Copyright ORBIFLY Dicembre 2007 - Disclaimer

ORBIFLY MET'MAP TEAM :

Programmazione e sviluppo : Alexandra Zaïnal
Concezione : Baudouin d'Aumeries
Supporto tecnico e logistico : Manuel Goepfert
Aiuto : Marc-Olivier Méhu
Aiuto per la traduzione : Arnaldo La Scala




FONTI E CREDITI :

   NOAA